createdAt,value
2023-03-06T00:01:00.212Z,31.50
2023-03-06T00:03:28.185Z,31.80
2023-03-06T00:05:57.398Z,30.27
2023-03-06T00:08:25.489Z,35.77
2023-03-06T00:10:52.671Z,32.07
2023-03-06T00:13:20.027Z,33.10
2023-03-06T00:15:47.992Z,31.23
2023-03-06T00:18:15.459Z,34.73
2023-03-06T00:20:43.595Z,32.90
2023-03-06T00:23:11.200Z,35.67
2023-03-06T00:25:38.937Z,34.53
2023-03-06T00:28:06.495Z,34.30
2023-03-06T00:30:33.976Z,37.07
2023-03-06T00:33:00.624Z,41.83
2023-03-06T00:35:27.325Z,35.13
2023-03-06T00:37:54.093Z,34.50
2023-03-06T00:40:22.032Z,36.37
2023-03-06T00:42:48.882Z,39.53
2023-03-06T00:45:16.130Z,41.37
2023-03-06T00:47:43.650Z,34.97
2023-03-06T00:50:11.100Z,35.93
2023-03-06T00:52:37.838Z,29.70
2023-03-06T00:55:05.767Z,26.27
2023-03-06T00:57:32.510Z,27.77
2023-03-06T00:59:59.504Z,25.20
2023-03-06T01:02:26.200Z,27.53
2023-03-06T01:04:52.938Z,28.20
2023-03-06T01:07:19.581Z,35.23
2023-03-06T01:09:46.185Z,22.30
2023-03-06T01:12:12.866Z,24.07
2023-03-06T01:14:39.471Z,27.13
2023-03-06T01:17:06.088Z,27.57
2023-03-06T01:19:32.821Z,21.03
2023-03-06T01:21:59.498Z,21.27
2023-03-06T01:24:26.209Z,23.60
2023-03-06T01:26:52.975Z,24.57
2023-03-06T01:29:21.123Z,17.90
2023-03-06T01:31:47.918Z,18.80
2023-03-06T01:34:14.904Z,21.47
2023-03-06T01:36:41.691Z,22.00
2023-03-06T01:39:08.403Z,21.30
2023-03-06T01:41:35.401Z,22.43
2023-03-06T01:44:02.717Z,23.07
2023-03-06T01:46:29.548Z,24.27
2023-03-06T01:49:02.916Z,21.70
2023-03-06T01:51:34.716Z,24.67
2023-03-06T01:54:08.848Z,21.17
2023-03-06T01:56:36.233Z,21.13
2023-03-06T01:59:03.409Z,23.60
2023-03-06T02:01:31.345Z,23.43
2023-03-06T02:03:59.679Z,20.63
2023-03-06T02:06:27.278Z,18.47
2023-03-06T02:08:54.695Z,18.23
2023-03-06T02:11:25.818Z,21.17
2023-03-06T02:13:54.821Z,20.60
2023-03-06T02:16:26.515Z,19.97
2023-03-06T02:18:53.953Z,22.57
2023-03-06T02:21:25.719Z,23.67
2023-03-06T02:24:02.199Z,21.17
2023-03-06T02:26:29.982Z,20.13
2023-03-06T02:28:58.530Z,19.73
2023-03-06T02:31:28.978Z,17.03
2023-03-06T02:34:06.787Z,18.60
2023-03-06T02:36:49.896Z,16.77
2023-03-06T02:39:20.275Z,18.83
2023-03-06T02:41:46.981Z,18.47
2023-03-06T02:44:13.761Z,22.70
2023-03-06T02:46:40.471Z,19.50
2023-03-06T02:49:07.128Z,16.77
2023-03-06T02:51:34.585Z,18.23
2023-03-06T02:54:01.270Z,17.27
2023-03-06T02:56:28.041Z,18.03
2023-03-06T02:58:54.731Z,16.77
2023-03-06T03:01:21.427Z,18.37
2023-03-06T03:03:48.219Z,15.93
2023-03-06T03:06:14.971Z,13.70
2023-03-06T03:08:41.673Z,14.57
2023-03-06T03:11:09.435Z,13.10
2023-03-06T03:13:37.591Z,16.90
2023-03-06T03:16:06.250Z,15.63
2023-03-06T03:18:33.599Z,17.13
2023-03-06T03:21:00.486Z,16.83
2023-03-06T03:23:27.538Z,17.73
2023-03-06T03:25:54.690Z,18.53
2023-03-06T03:28:21.628Z,18.47
2023-03-06T03:30:50.071Z,20.63
2023-03-06T03:33:16.767Z,22.00
2023-03-06T03:35:43.484Z,22.27
2023-03-06T03:38:10.283Z,20.30
2023-03-06T03:40:38.917Z,17.20
2023-03-06T03:43:05.666Z,16.10
2023-03-06T03:45:32.333Z,16.97
2023-03-06T03:47:59.040Z,16.70
2023-03-06T03:50:25.914Z,16.17
2023-03-06T03:52:52.858Z,17.57
2023-03-06T03:55:19.455Z,21.33
2023-03-06T03:57:46.197Z,21.60
2023-03-06T04:00:16.635Z,38.10
2023-03-06T04:02:45.157Z,44.13
2023-03-06T04:05:14.660Z,29.13
2023-03-06T04:07:42.632Z,19.77
2023-03-06T04:10:10.867Z,18.70
2023-03-06T04:12:37.696Z,19.43
2023-03-06T04:15:07.069Z,21.97
2023-03-06T04:17:37.029Z,23.30
2023-03-06T04:20:04.960Z,24.10
2023-03-06T04:22:31.700Z,24.33
2023-03-06T04:24:58.405Z,15.70
2023-03-06T04:27:25.105Z,16.13
2023-03-06T04:29:51.867Z,16.20
2023-03-06T04:32:21.250Z,18.20
2023-03-06T04:34:48.098Z,16.37
2023-03-06T04:37:20.943Z,19.17
2023-03-06T04:39:47.747Z,22.70
2023-03-06T04:42:14.898Z,23.93
2023-03-06T04:44:42.700Z,23.37
2023-03-06T04:47:09.483Z,20.83
2023-03-06T04:49:36.246Z,23.47
2023-03-06T04:52:03.520Z,26.10
2023-03-06T04:54:30.508Z,25.33
2023-03-06T04:56:57.370Z,24.37
2023-03-06T04:59:24.072Z,22.30
2023-03-06T05:01:50.824Z,19.77
2023-03-06T05:04:17.607Z,19.87
2023-03-06T05:06:44.362Z,32.13
2023-03-06T05:09:11.118Z,30.13
2023-03-06T05:11:38.441Z,22.73
2023-03-06T05:14:05.198Z,25.17
2023-03-06T05:16:31.868Z,29.53
2023-03-06T05:18:58.564Z,22.30
2023-03-06T05:21:25.251Z,28.50
2023-03-06T05:23:51.951Z,23.73
2023-03-06T05:26:18.612Z,25.03
2023-03-06T05:28:45.384Z,25.50
2023-03-06T05:31:12.174Z,23.63
2023-03-06T05:33:38.835Z,22.77
2023-03-06T05:36:08.103Z,23.47
2023-03-06T05:38:34.771Z,25.60
2023-03-06T05:41:01.480Z,24.37
2023-03-06T05:43:28.197Z,21.00
2023-03-06T05:46:05.931Z,24.73
2023-03-06T05:48:33.138Z,26.80
2023-03-06T05:51:01.762Z,28.07
2023-03-06T05:53:29.394Z,32.90
2023-03-06T05:56:01.481Z,28.33
2023-03-06T05:58:29.038Z,31.80
2023-03-06T06:00:55.779Z,27.33
2023-03-06T06:03:23.231Z,26.70
2023-03-06T06:05:50.318Z,26.57
2023-03-06T06:08:17.345Z,26.97
2023-03-06T06:10:44.249Z,31.73
2023-03-06T06:13:10.946Z,30.57
2023-03-06T06:15:38.874Z,24.80
2023-03-06T06:18:05.846Z,28.33
2023-03-06T06:20:32.590Z,27.63
2023-03-06T06:22:59.347Z,32.77
2023-03-06T06:25:26.566Z,33.13
2023-03-06T06:27:56.642Z,29.13
2023-03-06T06:30:24.917Z,21.67
2023-03-06T06:32:51.567Z,19.60
2023-03-06T06:35:18.383Z,19.20
2023-03-06T06:37:45.142Z,21.93
2023-03-06T06:40:12.220Z,21.33
2023-03-06T06:42:40.241Z,25.50
2023-03-06T06:45:10.612Z,24.73
2023-03-06T06:47:41.861Z,27.73
2023-03-06T06:50:12.931Z,31.83
2023-03-06T06:52:40.442Z,26.30
2023-03-06T06:55:09.267Z,31.55
2023-03-06T06:57:35.964Z,36.67
2023-03-06T07:00:03.837Z,55.65
2023-03-06T07:02:32.303Z,41.88
2023-03-06T07:05:06.366Z,36.75
2023-03-06T07:07:38.197Z,38.60
2023-03-06T07:10:13.579Z,28.25
2023-03-06T07:12:40.344Z,24.40
2023-03-06T07:15:08.112Z,54.92
2023-03-06T07:17:34.826Z,35.35
2023-03-06T07:20:01.681Z,68.45
2023-03-06T07:22:31.962Z,27.08
2023-03-06T07:25:04.068Z,37.22
2023-03-06T07:27:30.885Z,35.97
2023-03-06T07:29:58.129Z,33.15
2023-03-06T07:32:25.118Z,57.30
2023-03-06T07:34:51.823Z,39.15
2023-03-06T07:37:18.563Z,32.00
2023-03-06T07:39:45.321Z,24.08
2023-03-06T07:42:15.096Z,26.80
2023-03-06T07:44:41.782Z,24.48
2023-03-06T07:47:08.575Z,23.75
2023-03-06T07:49:35.533Z,33.72
2023-03-06T07:52:02.309Z,25.80
2023-03-06T07:54:30.856Z,11.93
2023-03-06T07:56:57.619Z,14.02
2023-03-06T07:59:24.599Z,18.52
2023-03-06T08:01:51.332Z,18.17
2023-03-06T08:04:18.013Z,20.40
2023-03-06T08:06:44.739Z,16.98
2023-03-06T08:09:11.448Z,16.02
2023-03-06T08:11:38.156Z,19.20
2023-03-06T08:14:05.032Z,14.07
2023-03-06T08:16:31.893Z,16.25
2023-03-06T08:18:58.712Z,12.98
2023-03-06T08:21:27.627Z,11.18
2023-03-06T08:23:55.065Z,7.88
2023-03-06T08:26:27.692Z,9.00
2023-03-06T08:28:56.043Z,9.45
2023-03-06T08:31:28.589Z,7.80
2023-03-06T08:33:56.356Z,13.57
2023-03-06T08:36:23.999Z,16.25
2023-03-06T08:38:50.811Z,8.02
2023-03-06T08:41:17.704Z,7.70
2023-03-06T08:43:44.422Z,10.23
2023-03-06T08:46:11.947Z,9.80
2023-03-06T08:48:40.236Z,10.38
2023-03-06T08:51:09.504Z,8.98
2023-03-06T08:53:42.993Z,5.97
2023-03-06T08:56:31.708Z,7.55
2023-03-06T08:59:01.006Z,7.22
2023-03-06T09:01:36.822Z,9.25
2023-03-06T09:04:06.997Z,8.48
2023-03-06T09:06:39.290Z,8.98
2023-03-06T09:09:06.939Z,7.38
2023-03-06T09:11:34.288Z,6.60
2023-03-06T09:14:01.124Z,7.03
2023-03-06T09:16:27.946Z,7.18
2023-03-06T09:18:54.940Z,6.88
2023-03-06T09:21:22.645Z,6.88
2023-03-06T09:23:50.085Z,7.53
2023-03-06T09:26:17.483Z,6.78
2023-03-06T09:28:44.462Z,6.82
2023-03-06T09:31:13.788Z,7.43
2023-03-06T09:33:40.813Z,7.68
2023-03-06T09:36:09.033Z,6.55
2023-03-06T09:38:35.729Z,5.60
2023-03-06T09:41:31.857Z,5.18
2023-03-06T09:44:09.160Z,6.75
2023-03-06T09:46:46.056Z,5.50
2023-03-06T09:49:45.233Z,5.68
2023-03-06T09:52:17.882Z,5.00
2023-03-06T09:54:54.115Z,7.85
2023-03-06T09:57:26.120Z,6.95
2023-03-06T09:59:57.915Z,6.45
2023-03-06T10:02:40.221Z,6.60
2023-03-06T10:05:24.195Z,5.63
2023-03-06T10:07:57.207Z,6.90
2023-03-06T10:10:27.247Z,6.18
2023-03-06T10:13:18.682Z,5.97
2023-03-06T10:15:48.156Z,5.43
2023-03-06T10:18:14.907Z,5.93
2023-03-06T10:20:47.795Z,7.00
2023-03-06T10:23:29.383Z,6.22
2023-03-06T10:26:22.572Z,4.75
2023-03-06T10:29:11.691Z,7.28
2023-03-06T10:31:49.576Z,5.00
2023-03-06T10:34:37.642Z,8.38
2023-03-06T10:37:19.703Z,6.20
2023-03-06T10:39:48.483Z,4.40
2023-03-06T10:42:15.136Z,4.82
2023-03-06T10:44:41.899Z,4.40
2023-03-06T10:47:30.597Z,3.90
2023-03-06T10:50:02.673Z,3.83
2023-03-06T10:52:32.014Z,4.22
2023-03-06T10:55:29.265Z,4.22
2023-03-06T10:57:55.963Z,6.45
2023-03-06T11:00:33.247Z,4.57
2023-03-06T11:03:04.876Z,4.88
2023-03-06T11:05:31.637Z,3.88
2023-03-06T11:08:00.605Z,4.28
2023-03-06T11:10:29.088Z,5.20
2023-03-06T11:13:02.818Z,4.30
2023-03-06T11:15:29.923Z,5.25
2023-03-06T11:18:08.924Z,4.25
2023-03-06T11:20:51.879Z,4.25
2023-03-06T11:23:34.785Z,4.78
2023-03-06T11:26:16.697Z,4.55
2023-03-06T11:29:17.416Z,3.72
2023-03-06T11:31:56.951Z,6.82
2023-03-06T11:34:38.494Z,4.40
2023-03-06T11:37:29.564Z,5.00
2023-03-06T11:40:11.560Z,5.53
2023-03-06T11:42:42.751Z,4.53
2023-03-06T11:45:27.936Z,5.38
2023-03-06T11:48:17.474Z,4.25
2023-03-06T11:51:07.027Z,4.70
2023-03-06T11:53:37.060Z,4.80
2023-03-06T11:56:18.250Z,4.90
2023-03-06T11:59:15.846Z,4.10
2023-03-06T12:01:57.712Z,4.88
2023-03-06T12:05:08.293Z,4.78
2023-03-06T12:08:04.049Z,4.43
2023-03-06T12:13:31.346Z,5.10
2023-03-06T12:16:25.905Z,5.03
2023-03-06T12:19:04.816Z,5.50
2023-03-06T12:21:40.288Z,4.90
2023-03-06T12:24:24.496Z,4.35
2023-03-06T12:26:57.057Z,5.43
2023-03-06T12:29:52.538Z,4.82
2023-03-06T12:32:46.887Z,5.40
2023-03-06T12:35:37.817Z,6.28
2023-03-06T12:38:10.348Z,4.68
2023-03-06T12:40:40.029Z,5.30
2023-03-06T12:43:34.133Z,4.70
2023-03-06T12:46:15.561Z,5.32
2023-03-06T12:48:45.891Z,5.47
2023-03-06T12:51:18.291Z,5.78
2023-03-06T12:53:45.784Z,6.70
2023-03-06T12:56:15.714Z,5.55
2023-03-06T12:58:56.479Z,5.18
2023-03-06T13:01:47.727Z,5.03
2023-03-06T13:04:49.855Z,4.43
2023-03-06T13:07:52.851Z,5.20
2023-03-06T13:10:27.895Z,5.07
2023-03-06T13:15:43.185Z,5.15
2023-03-06T13:18:21.932Z,5.38
2023-03-06T13:20:58.909Z,5.82
2023-03-06T13:23:39.137Z,6.20
2023-03-06T13:26:11.159Z,5.68
2023-03-06T13:28:50.401Z,4.75
2023-03-06T13:31:55.037Z,5.15
2023-03-06T13:34:38.259Z,5.68
2023-03-06T13:37:13.851Z,6.10
2023-03-06T13:39:52.476Z,6.50
2023-03-06T13:42:37.167Z,6.57
2023-03-06T13:45:07.959Z,8.07
2023-03-06T13:50:44.667Z,6.40
2023-03-06T13:53:42.526Z,6.60
2023-03-06T13:56:32.929Z,5.20
2023-03-06T13:59:41.243Z,5.07
2023-03-06T14:02:34.096Z,9.52
2023-03-06T14:05:03.658Z,7.38
2023-03-06T14:07:33.570Z,7.05
2023-03-06T14:10:19.957Z,7.53
2023-03-06T14:12:49.675Z,7.82
2023-03-06T14:15:22.639Z,9.05
2023-03-06T14:18:01.836Z,5.45
2023-03-06T14:20:54.624Z,6.00
2023-03-06T14:23:21.259Z,7.78
2023-03-06T14:25:56.370Z,6.95
2023-03-06T14:28:28.837Z,7.55
2023-03-06T14:30:57.039Z,4.70
2023-03-06T14:33:32.213Z,7.70
2023-03-06T14:36:02.487Z,8.02
2023-03-06T14:38:35.730Z,10.00
2023-03-06T14:41:05.032Z,10.95
2023-03-06T14:43:32.411Z,9.05
2023-03-06T14:46:01.605Z,6.70
2023-03-06T14:48:42.804Z,8.50
2023-03-06T14:51:17.104Z,10.20
2023-03-06T14:53:46.425Z,7.60
2023-03-06T14:56:22.556Z,8.90
2023-03-06T14:59:00.369Z,7.43
2023-03-06T15:01:49.885Z,6.93
2023-03-06T15:04:31.932Z,8.32
2023-03-06T15:06:59.384Z,7.88
2023-03-06T15:09:32.862Z,8.73
2023-03-06T15:12:01.088Z,7.05
2023-03-06T15:14:42.189Z,6.25
2023-03-06T15:17:17.968Z,7.90
2023-03-06T15:19:47.063Z,9.05
2023-03-06T15:22:26.444Z,9.60
2023-03-06T15:24:54.450Z,9.65
2023-03-06T15:27:29.683Z,8.32
2023-03-06T15:30:30.462Z,9.27
2023-03-06T15:33:22.134Z,9.13
2023-03-06T15:35:57.722Z,11.23
2023-03-06T15:38:33.053Z,11.30
2023-03-06T15:41:02.300Z,8.55
2023-03-06T15:43:35.183Z,13.20
2023-03-06T15:46:02.094Z,12.48
2023-03-06T15:48:28.913Z,17.98
2023-03-06T15:50:55.644Z,17.63
2023-03-06T15:53:22.959Z,8.82
2023-03-06T15:55:51.552Z,19.13
2023-03-06T15:58:24.933Z,13.20
2023-03-06T16:00:52.071Z,13.25
2023-03-06T16:03:19.094Z,10.25
2023-03-06T16:05:45.786Z,19.25
2023-03-06T16:08:14.960Z,16.95
2023-03-06T16:10:44.054Z,15.98
2023-03-06T16:13:24.491Z,14.07
2023-03-06T16:15:51.375Z,18.25
2023-03-06T16:18:19.000Z,8.50
2023-03-06T16:20:46.570Z,8.88
2023-03-06T16:23:13.282Z,14.43
2023-03-06T16:25:43.052Z,23.35
2023-03-06T16:28:14.744Z,13.02
2023-03-06T16:30:43.290Z,17.80
2023-03-06T16:33:12.061Z,12.73
2023-03-06T16:35:39.908Z,22.17
2023-03-06T16:38:07.157Z,13.60
2023-03-06T16:40:38.415Z,13.30
2023-03-06T16:43:05.685Z,9.70
2023-03-06T16:45:36.458Z,15.30
2023-03-06T16:48:03.169Z,10.55
2023-03-06T16:50:33.274Z,13.50
2023-03-06T16:53:00.271Z,12.82
2023-03-06T16:55:27.698Z,10.85
2023-03-06T16:57:54.782Z,8.90
2023-03-06T17:00:24.613Z,11.00
2023-03-06T17:02:52.524Z,10.25
2023-03-06T17:05:20.171Z,12.80
2023-03-06T17:07:47.361Z,14.57
2023-03-06T17:10:16.507Z,15.32
2023-03-06T17:12:43.720Z,13.80
2023-03-06T17:15:11.574Z,13.05
2023-03-06T17:17:38.540Z,14.80
2023-03-06T17:20:07.784Z,19.52
2023-03-06T17:22:36.217Z,16.27
2023-03-06T17:25:06.853Z,16.60
2023-03-06T17:27:35.196Z,14.40
2023-03-06T17:30:02.571Z,14.50
2023-03-06T17:32:29.334Z,24.80
2023-03-06T17:34:57.119Z,17.58
2023-03-06T17:37:23.854Z,17.42
2023-03-06T17:39:50.713Z,20.98
2023-03-06T17:42:17.512Z,11.63
2023-03-06T17:44:44.331Z,20.02
2023-03-06T17:47:11.229Z,13.73
2023-03-06T17:49:37.984Z,19.33
2023-03-06T17:52:05.861Z,21.25
2023-03-06T17:54:33.357Z,37.10
2023-03-06T17:57:03.534Z,29.65
2023-03-06T17:59:31.565Z,30.55
2023-03-06T18:01:59.645Z,36.70
2023-03-06T18:04:26.934Z,43.42
2023-03-06T18:06:53.729Z,43.65
2023-03-06T18:09:20.520Z,37.25
2023-03-06T18:11:47.295Z,36.83
2023-03-06T18:14:14.289Z,37.55
2023-03-06T18:16:41.477Z,36.67
2023-03-06T18:19:11.412Z,76.05
2023-03-06T18:21:39.788Z,88.43
2023-03-06T18:24:07.370Z,84.15
2023-03-06T18:26:34.266Z,54.63
2023-03-06T18:29:03.835Z,43.90
2023-03-06T18:31:34.595Z,43.03
2023-03-06T18:34:05.637Z,46.17
2023-03-06T18:36:34.362Z,45.80
2023-03-06T18:39:03.986Z,46.05
2023-03-06T18:41:31.350Z,46.13
2023-03-06T18:44:00.300Z,48.70
2023-03-06T18:46:39.774Z,60.58
2023-03-06T18:49:07.160Z,63.60
2023-03-06T18:51:33.902Z,48.03
2023-03-06T18:54:02.671Z,50.17
2023-03-06T18:56:32.270Z,53.63
2023-03-06T18:59:04.433Z,53.55
2023-03-06T19:01:31.504Z,27.17
2023-03-06T19:04:02.958Z,47.63
2023-03-06T19:06:30.289Z,57.28
2023-03-06T19:08:58.826Z,56.67
2023-03-06T19:11:26.904Z,69.55
2023-03-06T19:13:53.857Z,60.90
2023-03-06T19:16:24.662Z,56.30
2023-03-06T19:18:51.500Z,48.42
2023-03-06T19:21:20.450Z,42.85
2023-03-06T19:23:48.320Z,32.95
2023-03-06T19:26:15.722Z,28.50
2023-03-06T19:28:43.585Z,30.55
2023-03-06T19:31:25.237Z,30.30
2023-03-06T19:33:53.541Z,35.92
2023-03-06T19:36:26.614Z,38.40
2023-03-06T19:38:57.432Z,32.72
2023-03-06T19:41:24.800Z,34.17
2023-03-06T19:43:54.578Z,30.25
2023-03-06T19:46:22.924Z,39.97
2023-03-06T19:49:01.149Z,40.72
2023-03-06T19:51:28.450Z,29.25
2023-03-06T19:53:57.017Z,34.60
2023-03-06T19:56:26.381Z,30.40
2023-03-06T19:58:53.556Z,34.00
2023-03-06T20:01:22.397Z,29.30
2023-03-06T20:03:50.870Z,34.75
2023-03-06T20:06:19.887Z,34.72
2023-03-06T20:08:47.534Z,30.40
2023-03-06T20:11:18.301Z,34.47
2023-03-06T20:13:47.352Z,35.08
2023-03-06T20:16:15.280Z,30.50
2023-03-06T20:18:42.058Z,35.55
2023-03-06T20:21:08.921Z,49.00
2023-03-06T20:23:35.741Z,51.10
2023-03-06T20:26:04.712Z,51.13
2023-03-06T20:28:31.875Z,54.95
2023-03-06T20:30:58.669Z,52.13
2023-03-06T20:33:26.776Z,50.93
2023-03-06T20:35:54.483Z,53.42
2023-03-06T20:38:21.303Z,55.37
2023-03-06T20:40:48.010Z,44.80
2023-03-06T20:43:14.775Z,24.13
2023-03-06T20:45:41.652Z,41.67
2023-03-06T20:48:08.424Z,38.90
2023-03-06T20:50:35.127Z,38.47
2023-03-06T20:53:02.012Z,32.07
2023-03-06T20:55:28.689Z,32.70
2023-03-06T20:57:55.354Z,32.22
2023-03-06T21:00:22.153Z,34.40
2023-03-06T21:02:48.989Z,41.97
2023-03-06T21:05:15.730Z,41.27
2023-03-06T21:07:42.629Z,45.63
2023-03-06T21:10:09.942Z,40.63
2023-03-06T21:12:36.588Z,40.50
2023-03-06T21:15:03.818Z,37.97
2023-03-06T21:17:30.598Z,37.33
2023-03-06T21:19:58.488Z,32.63
2023-03-06T21:22:25.609Z,36.93
2023-03-06T21:24:52.240Z,38.27
2023-03-06T21:27:18.939Z,36.88
2023-03-06T21:29:45.897Z,41.85
2023-03-06T21:32:12.553Z,40.47
2023-03-06T21:34:39.201Z,40.37
2023-03-06T21:37:05.927Z,43.17
2023-03-06T21:39:32.675Z,46.57
2023-03-06T21:41:59.355Z,63.67
2023-03-06T21:44:26.198Z,47.50
2023-03-06T21:46:52.891Z,45.70
2023-03-06T21:49:22.986Z,44.63
2023-03-06T21:51:50.878Z,48.00
2023-03-06T21:54:17.562Z,36.17
2023-03-06T21:56:44.315Z,39.07
2023-03-06T21:59:11.066Z,35.60
2023-03-06T22:01:37.768Z,37.80
2023-03-06T22:04:04.743Z,34.00
2023-03-06T22:06:31.836Z,28.50
2023-03-06T22:09:00.021Z,32.37
2023-03-06T22:11:30.651Z,27.37
2023-03-06T22:13:58.285Z,26.00
2023-03-06T22:16:25.022Z,27.67
2023-03-06T22:18:52.186Z,26.13
2023-03-06T22:21:21.702Z,26.10
2023-03-06T22:23:53.543Z,25.30
2023-03-06T22:26:20.667Z,26.90
2023-03-06T22:28:47.461Z,26.53
2023-03-06T22:31:19.936Z,26.33
2023-03-06T22:33:47.069Z,29.90
2023-03-06T22:36:15.452Z,30.87
2023-03-06T22:38:44.667Z,30.13
2023-03-06T22:41:12.844Z,30.47
2023-03-06T22:43:39.826Z,31.03
2023-03-06T22:46:12.152Z,29.70
2023-03-06T22:48:39.124Z,32.70
2023-03-06T22:51:19.763Z,29.53
2023-03-06T22:53:48.023Z,31.57
2023-03-06T22:56:17.280Z,30.63
2023-03-06T22:58:45.060Z,31.27
2023-03-06T23:01:20.049Z,24.90
2023-03-06T23:03:51.721Z,26.40
2023-03-06T23:06:32.368Z,28.00
2023-03-06T23:09:03.388Z,25.10
2023-03-06T23:11:30.921Z,24.00
2023-03-06T23:13:58.104Z,22.90
2023-03-06T23:16:25.994Z,24.97
2023-03-06T23:18:53.590Z,25.57
2023-03-06T23:21:21.791Z,26.60
2023-03-06T23:23:50.775Z,27.47
2023-03-06T23:26:19.695Z,23.10
2023-03-06T23:28:46.634Z,23.57
2023-03-06T23:31:16.094Z,23.77
2023-03-06T23:33:42.936Z,24.13
2023-03-06T23:36:12.699Z,21.57
2023-03-06T23:38:41.068Z,21.40
2023-03-06T23:41:11.878Z,23.93
2023-03-06T23:43:38.855Z,20.60
2023-03-06T23:46:07.329Z,21.67
2023-03-06T23:48:36.040Z,21.03
2023-03-06T23:51:12.865Z,22.20
2023-03-06T23:53:39.595Z,26.77
2023-03-06T23:56:08.291Z,23.15
2023-03-06T23:58:35.830Z,23.73
